sensor_id;sensor_type;location;lat;lon;timestamp;P1;durP1;ratioP1;P2;durP2;ratioP2
36371;SDS011;22398;51.346;12.372;2024-02-16T00:03:49;5.30;;;3.15;;
36371;SDS011;22398;51.346;12.372;2024-02-16T00:08:54;5.05;;;3.40;;
36371;SDS011;22398;51.346;12.372;2024-02-16T00:13:58;7.88;;;3.35;;
36371;SDS011;22398;51.346;12.372;2024-02-16T00:19:02;6.78;;;3.60;;
36371;SDS011;22398;51.346;12.372;2024-02-16T00:24:07;5.10;;;3.08;;
36371;SDS011;22398;51.346;12.372;2024-02-16T00:29:11;5.03;;;3.00;;
36371;SDS011;22398;51.346;12.372;2024-02-16T00:34:15;8.35;;;2.85;;
36371;SDS011;22398;51.346;12.372;2024-02-16T00:39:20;5.43;;;2.78;;
36371;SDS011;22398;51.346;12.372;2024-02-16T00:44:24;5.93;;;2.97;;
36371;SDS011;22398;51.346;12.372;2024-02-16T00:49:27;5.82;;;2.88;;
36371;SDS011;22398;51.346;12.372;2024-02-16T00:54:33;8.57;;;2.85;;
36371;SDS011;22398;51.346;12.372;2024-02-16T00:59:36;6.05;;;2.95;;
36371;SDS011;22398;51.346;12.372;2024-02-16T01:04:40;5.13;;;3.22;;
36371;SDS011;22398;51.346;12.372;2024-02-16T01:09:45;4.90;;;3.20;;
36371;SDS011;22398;51.346;12.372;2024-02-16T01:14:50;9.07;;;3.03;;
36371;SDS011;22398;51.346;12.372;2024-02-16T01:19:54;6.90;;;3.03;;
36371;SDS011;22398;51.346;12.372;2024-02-16T01:24:59;4.50;;;3.13;;
36371;SDS011;22398;51.346;12.372;2024-02-16T01:30:04;5.63;;;3.08;;
36371;SDS011;22398;51.346;12.372;2024-02-16T01:35:08;4.30;;;2.58;;
36371;SDS011;22398;51.346;12.372;2024-02-16T01:40:14;3.77;;;2.47;;
36371;SDS011;22398;51.346;12.372;2024-02-16T01:45:19;8.85;;;3.45;;
36371;SDS011;22398;51.346;12.372;2024-02-16T01:50:23;9.20;;;3.13;;
36371;SDS011;22398;51.346;12.372;2024-02-16T01:55:28;4.63;;;2.80;;
36371;SDS011;22398;51.346;12.372;2024-02-16T02:00:32;5.20;;;2.80;;
36371;SDS011;22398;51.346;12.372;2024-02-16T02:05:43;8.35;;;3.08;;
36371;SDS011;22398;51.346;12.372;2024-02-16T02:10:49;5.00;;;2.70;;
36371;SDS011;22398;51.346;12.372;2024-02-16T02:15:53;8.63;;;2.22;;
36371;SDS011;22398;51.346;12.372;2024-02-16T02:21:01;4.45;;;2.35;;
36371;SDS011;22398;51.346;12.372;2024-02-16T02:26:05;6.65;;;2.97;;
36371;SDS011;22398;51.346;12.372;2024-02-16T02:31:09;4.65;;;2.65;;
36371;SDS011;22398;51.346;12.372;2024-02-16T02:36:13;8.45;;;2.63;;
36371;SDS011;22398;51.346;12.372;2024-02-16T02:41:21;5.88;;;2.67;;
36371;SDS011;22398;51.346;12.372;2024-02-16T02:46:24;9.70;;;2.33;;
36371;SDS011;22398;51.346;12.372;2024-02-16T02:51:29;6.85;;;2.30;;
36371;SDS011;22398;51.346;12.372;2024-02-16T02:56:34;5.13;;;2.47;;
36371;SDS011;22398;51.346;12.372;2024-02-16T03:01:38;6.78;;;2.28;;
36371;SDS011;22398;51.346;12.372;2024-02-16T03:06:41;4.95;;;2.30;;
36371;SDS011;22398;51.346;12.372;2024-02-16T03:11:47;4.00;;;2.38;;
36371;SDS011;22398;51.346;12.372;2024-02-16T03:16:50;4.93;;;2.00;;
36371;SDS011;22398;51.346;12.372;2024-02-16T03:21:54;4.57;;;2.58;;
36371;SDS011;22398;51.346;12.372;2024-02-16T03:26:59;5.13;;;1.95;;
36371;SDS011;22398;51.346;12.372;2024-02-16T03:32:03;6.38;;;2.05;;
36371;SDS011;22398;51.346;12.372;2024-02-16T03:37:07;7.00;;;2.90;;
36371;SDS011;22398;51.346;12.372;2024-02-16T03:42:12;2.97;;;1.77;;
36371;SDS011;22398;51.346;12.372;2024-02-16T03:47:16;6.82;;;2.10;;
36371;SDS011;22398;51.346;12.372;2024-02-16T03:52:19;4.05;;;2.10;;
36371;SDS011;22398;51.346;12.372;2024-02-16T03:57:24;3.97;;;2.20;;
36371;SDS011;22398;51.346;12.372;2024-02-16T04:02:28;3.90;;;2.28;;
36371;SDS011;22398;51.346;12.372;2024-02-16T04:07:32;2.43;;;1.97;;
36371;SDS011;22398;51.346;12.372;2024-02-16T04:12:38;5.90;;;2.10;;
36371;SDS011;22398;51.346;12.372;2024-02-16T04:17:42;3.60;;;2.20;;
36371;SDS011;22398;51.346;12.372;2024-02-16T04:22:46;12.85;;;2.30;;
36371;SDS011;22398;51.346;12.372;2024-02-16T04:27:51;5.60;;;2.03;;
36371;SDS011;22398;51.346;12.372;2024-02-16T04:32:54;6.43;;;2.20;;
36371;SDS011;22398;51.346;12.372;2024-02-16T04:37:58;3.70;;;2.00;;
36371;SDS011;22398;51.346;12.372;2024-02-16T04:43:03;2.53;;;1.60;;
36371;SDS011;22398;51.346;12.372;2024-02-16T04:48:07;4.72;;;2.50;;
36371;SDS011;22398;51.346;12.372;2024-02-16T04:53:11;5.80;;;2.60;;
36371;SDS011;22398;51.346;12.372;2024-02-16T04:58:15;3.60;;;2.10;;
36371;SDS011;22398;51.346;12.372;2024-02-16T05:03:19;5.07;;;1.87;;
36371;SDS011;22398;51.346;12.372;2024-02-16T05:08:23;4.35;;;2.25;;
36371;SDS011;22398;51.346;12.372;2024-02-16T05:13:27;3.72;;;2.35;;
36371;SDS011;22398;51.346;12.372;2024-02-16T05:18:31;5.80;;;3.23;;
36371;SDS011;22398;51.346;12.372;2024-02-16T05:23:35;6.22;;;1.95;;
36371;SDS011;22398;51.346;12.372;2024-02-16T05:28:40;4.38;;;2.38;;
36371;SDS011;22398;51.346;12.372;2024-02-16T05:33:44;3.72;;;2.00;;
36371;SDS011;22398;51.346;12.372;2024-02-16T05:38:50;5.07;;;2.15;;
36371;SDS011;22398;51.346;12.372;2024-02-16T05:43:57;6.90;;;2.20;;
36371;SDS011;22398;51.346;12.372;2024-02-16T05:49:01;5.00;;;2.00;;
36371;SDS011;22398;51.346;12.372;2024-02-16T05:54:04;4.47;;;1.70;;
36371;SDS011;22398;51.346;12.372;2024-02-16T05:59:11;4.53;;;2.30;;
36371;SDS011;22398;51.346;12.372;2024-02-16T06:04:14;4.00;;;1.85;;
36371;SDS011;22398;51.346;12.372;2024-02-16T06:09:18;4.90;;;2.38;;
36371;SDS011;22398;51.346;12.372;2024-02-16T06:14:24;4.90;;;2.25;;
36371;SDS011;22398;51.346;12.372;2024-02-16T06:19:27;5.67;;;2.00;;
36371;SDS011;22398;51.346;12.372;2024-02-16T06:24:30;5.00;;;2.13;;
36371;SDS011;22398;51.346;12.372;2024-02-16T06:29:35;4.57;;;2.33;;
36371;SDS011;22398;51.346;12.372;2024-02-16T06:34:39;4.95;;;2.65;;
36371;SDS011;22398;51.346;12.372;2024-02-16T06:39:43;4.50;;;2.25;;
36371;SDS011;22398;51.346;12.372;2024-02-16T06:44:48;4.63;;;2.53;;
36371;SDS011;22398;51.346;12.372;2024-02-16T06:49:51;6.37;;;2.70;;
36371;SDS011;22398;51.346;12.372;2024-02-16T06:54:55;4.90;;;2.88;;
36371;SDS011;22398;51.346;12.372;2024-02-16T07:00:00;5.45;;;2.95;;
36371;SDS011;22398;51.346;12.372;2024-02-16T07:05:05;4.38;;;2.30;;
36371;SDS011;22398;51.346;12.372;2024-02-16T07:10:09;7.93;;;2.83;;
36371;SDS011;22398;51.346;12.372;2024-02-16T07:20:20;13.00;;;2.58;;
36371;SDS011;22398;51.346;12.372;2024-02-16T07:25:23;6.80;;;2.70;;
36371;SDS011;22398;51.346;12.372;2024-02-16T07:30:29;4.18;;;2.58;;
36371;SDS011;22398;51.346;12.372;2024-02-16T07:35:43;9.15;;;2.70;;
36371;SDS011;22398;51.346;12.372;2024-02-16T07:40:47;8.07;;;2.55;;
36371;SDS011;22398;51.346;12.372;2024-02-16T07:45:53;7.78;;;2.08;;
36371;SDS011;22398;51.346;12.372;2024-02-16T07:50:57;5.18;;;2.30;;
36371;SDS011;22398;51.346;12.372;2024-02-16T07:56:04;5.05;;;2.65;;
36371;SDS011;22398;51.346;12.372;2024-02-16T08:01:11;4.97;;;2.35;;
36371;SDS011;22398;51.346;12.372;2024-02-16T08:06:17;4.88;;;1.85;;
36371;SDS011;22398;51.346;12.372;2024-02-16T08:11:22;7.35;;;2.05;;
36371;SDS011;22398;51.346;12.372;2024-02-16T08:16:28;6.97;;;2.88;;
36371;SDS011;22398;51.346;12.372;2024-02-16T08:21:31;7.72;;;2.33;;
36371;SDS011;22398;51.346;12.372;2024-02-16T08:26:35;14.40;;;4.13;;
36371;SDS011;22398;51.346;12.372;2024-02-16T08:31:39;11.07;;;2.20;;
36371;SDS011;22398;51.346;12.372;2024-02-16T08:36:43;3.53;;;1.60;;
36371;SDS011;22398;51.346;12.372;2024-02-16T08:41:47;4.25;;;1.48;;
36371;SDS011;22398;51.346;12.372;2024-02-16T08:46:52;4.45;;;1.60;;
36371;SDS011;22398;51.346;12.372;2024-02-16T08:56:59;4.57;;;1.65;;
36371;SDS011;22398;51.346;12.372;2024-02-16T09:02:04;3.33;;;1.60;;
36371;SDS011;22398;51.346;12.372;2024-02-16T09:12:12;2.53;;;1.10;;
36371;SDS011;22398;51.346;12.372;2024-02-16T09:17:17;2.92;;;1.23;;
36371;SDS011;22398;51.346;12.372;2024-02-16T09:22:22;2.20;;;1.40;;
36371;SDS011;22398;51.346;12.372;2024-02-16T09:27:38;2.72;;;1.40;;
36371;SDS011;22398;51.346;12.372;2024-02-16T09:32:44;5.88;;;1.17;;
36371;SDS011;22398;51.346;12.372;2024-02-16T09:37:48;4.03;;;1.90;;
36371;SDS011;22398;51.346;12.372;2024-02-16T09:42:51;3.28;;;1.50;;
36371;SDS011;22398;51.346;12.372;2024-02-16T09:47:56;4.40;;;1.75;;
36371;SDS011;22398;51.346;12.372;2024-02-16T09:53:07;5.43;;;2.05;;
36371;SDS011;22398;51.346;12.372;2024-02-16T09:58:12;2.10;;;1.30;;
36371;SDS011;22398;51.346;12.372;2024-02-16T10:03:24;3.28;;;1.88;;
36371;SDS011;22398;51.346;12.372;2024-02-16T10:08:29;3.42;;;1.67;;
36371;SDS011;22398;51.346;12.372;2024-02-16T10:13:32;2.58;;;1.42;;
36371;SDS011;22398;51.346;12.372;2024-02-16T10:18:37;4.38;;;1.73;;
36371;SDS011;22398;51.346;12.372;2024-02-16T10:23:41;4.80;;;2.08;;
36371;SDS011;22398;51.346;12.372;2024-02-16T10:28:45;3.13;;;1.67;;
36371;SDS011;22398;51.346;12.372;2024-02-16T10:33:50;4.50;;;1.50;;
36371;SDS011;22398;51.346;12.372;2024-02-16T10:38:55;4.00;;;2.03;;
36371;SDS011;22398;51.346;12.372;2024-02-16T10:43:59;1.80;;;1.50;;
36371;SDS011;22398;51.346;12.372;2024-02-16T10:49:04;3.97;;;1.80;;
36371;SDS011;22398;51.346;12.372;2024-02-16T10:54:09;5.95;;;2.33;;
36371;SDS011;22398;51.346;12.372;2024-02-16T10:59:16;3.55;;;1.90;;
36371;SDS011;22398;51.346;12.372;2024-02-16T11:04:21;5.65;;;1.85;;
36371;SDS011;22398;51.346;12.372;2024-02-16T11:09:28;2.80;;;1.50;;
36371;SDS011;22398;51.346;12.372;2024-02-16T11:14:35;3.92;;;1.45;;
36371;SDS011;22398;51.346;12.372;2024-02-16T11:19:41;3.05;;;1.50;;
36371;SDS011;22398;51.346;12.372;2024-02-16T11:24:45;3.22;;;1.70;;
36371;SDS011;22398;51.346;12.372;2024-02-16T11:29:49;2.43;;;1.57;;
36371;SDS011;22398;51.346;12.372;2024-02-16T11:34:54;5.85;;;1.90;;
36371;SDS011;22398;51.346;12.372;2024-02-16T11:39:58;4.00;;;1.83;;
36371;SDS011;22398;51.346;12.372;2024-02-16T11:45:01;6.30;;;1.77;;
36371;SDS011;22398;51.346;12.372;2024-02-16T11:50:07;5.72;;;1.73;;
36371;SDS011;22398;51.346;12.372;2024-02-16T11:55:13;3.95;;;2.13;;
36371;SDS011;22398;51.346;12.372;2024-02-16T12:00:18;3.47;;;1.70;;
36371;SDS011;22398;51.346;12.372;2024-02-16T12:05:23;2.13;;;1.60;;
36371;SDS011;22398;51.346;12.372;2024-02-16T12:10:26;5.82;;;1.90;;
36371;SDS011;22398;51.346;12.372;2024-02-16T12:15:30;4.72;;;1.90;;
36371;SDS011;22398;51.346;12.372;2024-02-16T12:20:35;7.23;;;1.93;;
36371;SDS011;22398;51.346;12.372;2024-02-16T12:25:39;5.03;;;2.10;;
36371;SDS011;22398;51.346;12.372;2024-02-16T12:30:42;5.15;;;1.63;;
36371;SDS011;22398;51.346;12.372;2024-02-16T12:35:48;6.28;;;1.90;;
36371;SDS011;22398;51.346;12.372;2024-02-16T12:40:51;4.10;;;1.50;;
36371;SDS011;22398;51.346;12.372;2024-02-16T12:45:55;3.15;;;1.70;;
36371;SDS011;22398;51.346;12.372;2024-02-16T12:51:00;3.58;;;1.85;;
36371;SDS011;22398;51.346;12.372;2024-02-16T12:56:04;5.68;;;1.80;;
36371;SDS011;22398;51.346;12.372;2024-02-16T13:01:08;3.10;;;1.55;;
36371;SDS011;22398;51.346;12.372;2024-02-16T13:06:27;3.78;;;1.60;;
36371;SDS011;22398;51.346;12.372;2024-02-16T13:11:31;11.50;;;1.88;;
36371;SDS011;22398;51.346;12.372;2024-02-16T13:16:35;5.00;;;1.60;;
36371;SDS011;22398;51.346;12.372;2024-02-16T13:21:40;5.50;;;1.80;;
36371;SDS011;22398;51.346;12.372;2024-02-16T13:31:47;4.85;;;2.20;;
36371;SDS011;22398;51.346;12.372;2024-02-16T13:36:52;4.13;;;1.40;;
36371;SDS011;22398;51.346;12.372;2024-02-16T13:41:55;2.88;;;1.60;;
36371;SDS011;22398;51.346;12.372;2024-02-16T13:46:59;3.97;;;1.35;;
36371;SDS011;22398;51.346;12.372;2024-02-16T13:52:04;7.97;;;1.75;;
36371;SDS011;22398;51.346;12.372;2024-02-16T13:57:10;2.83;;;1.35;;
36371;SDS011;22398;51.346;12.372;2024-02-16T14:02:13;3.70;;;0.93;;
36371;SDS011;22398;51.346;12.372;2024-02-16T14:07:18;2.95;;;1.40;;
36371;SDS011;22398;51.346;12.372;2024-02-16T14:12:21;2.13;;;1.15;;
36371;SDS011;22398;51.346;12.372;2024-02-16T14:17:25;2.55;;;1.50;;
36371;SDS011;22398;51.346;12.372;2024-02-16T14:22:29;4.72;;;2.33;;
36371;SDS011;22398;51.346;12.372;2024-02-16T14:27:35;3.53;;;1.63;;
36371;SDS011;22398;51.346;12.372;2024-02-16T14:32:38;5.25;;;2.00;;
36371;SDS011;22398;51.346;12.372;2024-02-16T14:37:44;3.27;;;2.13;;
36371;SDS011;22398;51.346;12.372;2024-02-16T14:42:48;5.45;;;1.90;;
36371;SDS011;22398;51.346;12.372;2024-02-16T14:47:51;3.28;;;1.83;;
36371;SDS011;22398;51.346;12.372;2024-02-16T14:52:56;3.90;;;1.42;;
36371;SDS011;22398;51.346;12.372;2024-02-16T14:57:59;5.95;;;1.67;;
36371;SDS011;22398;51.346;12.372;2024-02-16T15:03:03;3.75;;;2.10;;
36371;SDS011;22398;51.346;12.372;2024-02-16T15:08:08;3.70;;;1.80;;
36371;SDS011;22398;51.346;12.372;2024-02-16T15:13:12;2.55;;;1.35;;
36371;SDS011;22398;51.346;12.372;2024-02-16T15:18:15;3.42;;;1.48;;
36371;SDS011;22398;51.346;12.372;2024-02-16T15:23:20;4.13;;;1.55;;
36371;SDS011;22398;51.346;12.372;2024-02-16T15:28:24;5.93;;;1.35;;
36371;SDS011;22398;51.346;12.372;2024-02-16T15:33:27;4.10;;;2.10;;
36371;SDS011;22398;51.346;12.372;2024-02-16T15:38:32;4.30;;;2.03;;
36371;SDS011;22398;51.346;12.372;2024-02-16T15:43:36;2.60;;;1.45;;
36371;SDS011;22398;51.346;12.372;2024-02-16T15:48:39;3.42;;;1.73;;
36371;SDS011;22398;51.346;12.372;2024-02-16T15:53:44;6.68;;;2.30;;
36371;SDS011;22398;51.346;12.372;2024-02-16T15:58:47;3.80;;;2.03;;
36371;SDS011;22398;51.346;12.372;2024-02-16T16:03:53;4.70;;;1.80;;
36371;SDS011;22398;51.346;12.372;2024-02-16T16:08:58;5.32;;;2.00;;
36371;SDS011;22398;51.346;12.372;2024-02-16T16:14:02;5.07;;;2.13;;
36371;SDS011;22398;51.346;12.372;2024-02-16T16:19:05;5.55;;;2.00;;
36371;SDS011;22398;51.346;12.372;2024-02-16T16:24:11;4.35;;;2.10;;
36371;SDS011;22398;51.346;12.372;2024-02-16T16:29:15;6.97;;;2.20;;
36371;SDS011;22398;51.346;12.372;2024-02-16T16:34:19;5.03;;;2.05;;
36371;SDS011;22398;51.346;12.372;2024-02-16T16:39:26;4.22;;;2.22;;
36371;SDS011;22398;51.346;12.372;2024-02-16T16:44:30;4.68;;;2.10;;
36371;SDS011;22398;51.346;12.372;2024-02-16T16:49:37;5.47;;;2.10;;
36371;SDS011;22398;51.346;12.372;2024-02-16T16:54:43;4.47;;;2.42;;
36371;SDS011;22398;51.346;12.372;2024-02-16T16:59:47;10.75;;;2.45;;
36371;SDS011;22398;51.346;12.372;2024-02-16T17:04:50;3.92;;;2.55;;
36371;SDS011;22398;51.346;12.372;2024-02-16T17:09:55;5.22;;;2.72;;
36371;SDS011;22398;51.346;12.372;2024-02-16T17:14:59;7.60;;;2.03;;
36371;SDS011;22398;51.346;12.372;2024-02-16T17:20:03;3.25;;;1.92;;
36371;SDS011;22398;51.346;12.372;2024-02-16T17:25:08;4.63;;;2.10;;
36371;SDS011;22398;51.346;12.372;2024-02-16T17:30:12;6.22;;;2.88;;
36371;SDS011;22398;51.346;12.372;2024-02-16T17:35:21;3.95;;;2.33;;
36371;SDS011;22398;51.346;12.372;2024-02-16T17:40:26;4.22;;;2.55;;
36371;SDS011;22398;51.346;12.372;2024-02-16T17:45:30;7.70;;;3.10;;
36371;SDS011;22398;51.346;12.372;2024-02-16T17:50:33;7.65;;;3.20;;
36371;SDS011;22398;51.346;12.372;2024-02-16T17:55:38;8.88;;;3.72;;
36371;SDS011;22398;51.346;12.372;2024-02-16T18:00:41;5.37;;;3.00;;
36371;SDS011;22398;51.346;12.372;2024-02-16T18:05:45;7.43;;;3.25;;
36371;SDS011;22398;51.346;12.372;2024-02-16T18:10:49;7.32;;;3.80;;
36371;SDS011;22398;51.346;12.372;2024-02-16T18:15:53;7.22;;;3.22;;
36371;SDS011;22398;51.346;12.372;2024-02-16T18:20:57;7.55;;;3.83;;
36371;SDS011;22398;51.346;12.372;2024-02-16T18:26:02;16.98;;;3.97;;
36371;SDS011;22398;51.346;12.372;2024-02-16T18:31:06;10.07;;;4.28;;
36371;SDS011;22398;51.346;12.372;2024-02-16T18:36:09;12.50;;;4.70;;
36371;SDS011;22398;51.346;12.372;2024-02-16T18:41:14;9.20;;;4.32;;
36371;SDS011;22398;51.346;12.372;2024-02-16T18:46:18;8.03;;;4.70;;
36371;SDS011;22398;51.346;12.372;2024-02-16T18:51:21;10.85;;;5.15;;
36371;SDS011;22398;51.346;12.372;2024-02-16T18:56:26;7.18;;;3.78;;
36371;SDS011;22398;51.346;12.372;2024-02-16T19:01:29;8.17;;;3.30;;
36371;SDS011;22398;51.346;12.372;2024-02-16T19:06:33;9.25;;;4.07;;
36371;SDS011;22398;51.346;12.372;2024-02-16T19:11:38;9.45;;;4.57;;
36371;SDS011;22398;51.346;12.372;2024-02-16T19:16:42;12.93;;;5.47;;
36371;SDS011;22398;51.346;12.372;2024-02-16T19:21:48;11.70;;;6.35;;
36371;SDS011;22398;51.346;12.372;2024-02-16T19:26:53;12.23;;;5.47;;
36371;SDS011;22398;51.346;12.372;2024-02-16T19:31:56;11.13;;;4.97;;
36371;SDS011;22398;51.346;12.372;2024-02-16T19:37:00;7.63;;;4.30;;
36371;SDS011;22398;51.346;12.372;2024-02-16T19:42:05;9.05;;;4.30;;
36371;SDS011;22398;51.346;12.372;2024-02-16T19:47:08;12.10;;;6.55;;
36371;SDS011;22398;51.346;12.372;2024-02-16T19:52:12;8.73;;;4.80;;
36371;SDS011;22398;51.346;12.372;2024-02-16T19:57:21;12.50;;;4.75;;
36371;SDS011;22398;51.346;12.372;2024-02-16T20:02:24;8.63;;;4.50;;
36371;SDS011;22398;51.346;12.372;2024-02-16T20:07:30;11.65;;;4.85;;
36371;SDS011;22398;51.346;12.372;2024-02-16T20:12:39;8.77;;;4.60;;
36371;SDS011;22398;51.346;12.372;2024-02-16T20:17:42;10.77;;;6.23;;
36371;SDS011;22398;51.346;12.372;2024-02-16T20:22:46;9.95;;;4.97;;
36371;SDS011;22398;51.346;12.372;2024-02-16T20:27:51;9.45;;;4.70;;
36371;SDS011;22398;51.346;12.372;2024-02-16T20:32:55;8.77;;;5.25;;
36371;SDS011;22398;51.346;12.372;2024-02-16T20:38:04;11.50;;;4.75;;
36371;SDS011;22398;51.346;12.372;2024-02-16T20:43:09;9.32;;;5.25;;
36371;SDS011;22398;51.346;12.372;2024-02-16T20:48:12;14.43;;;4.83;;
36371;SDS011;22398;51.346;12.372;2024-02-16T20:53:16;8.68;;;4.85;;
36371;SDS011;22398;51.346;12.372;2024-02-16T20:58:26;12.18;;;5.35;;
36371;SDS011;22398;51.346;12.372;2024-02-16T21:03:30;11.48;;;5.70;;
36371;SDS011;22398;51.346;12.372;2024-02-16T21:08:34;12.38;;;6.95;;
36371;SDS011;22398;51.346;12.372;2024-02-16T21:13:49;10.20;;;5.13;;
36371;SDS011;22398;51.346;12.372;2024-02-16T21:18:58;13.27;;;6.75;;
36371;SDS011;22398;51.346;12.372;2024-02-16T21:24:10;25.50;;;8.90;;
36371;SDS011;22398;51.346;12.372;2024-02-16T21:29:17;19.48;;;6.65;;
36371;SDS011;22398;51.346;12.372;2024-02-16T21:34:21;13.50;;;6.13;;
36371;SDS011;22398;51.346;12.372;2024-02-16T21:39:25;18.38;;;7.05;;
36371;SDS011;22398;51.346;12.372;2024-02-16T21:44:36;10.75;;;6.43;;
36371;SDS011;22398;51.346;12.372;2024-02-16T21:49:57;14.07;;;6.68;;
36371;SDS011;22398;51.346;12.372;2024-02-16T21:55:06;18.65;;;7.43;;
36371;SDS011;22398;51.346;12.372;2024-02-16T22:00:14;11.93;;;6.25;;
36371;SDS011;22398;51.346;12.372;2024-02-16T22:05:19;14.73;;;5.80;;
36371;SDS011;22398;51.346;12.372;2024-02-16T22:10:22;16.70;;;7.53;;
36371;SDS011;22398;51.346;12.372;2024-02-16T22:15:27;13.68;;;6.45;;
36371;SDS011;22398;51.346;12.372;2024-02-16T22:20:33;17.47;;;7.60;;
36371;SDS011;22398;51.346;12.372;2024-02-16T22:25:37;16.65;;;8.13;;
36371;SDS011;22398;51.346;12.372;2024-02-16T22:30:42;26.23;;;10.55;;
36371;SDS011;22398;51.346;12.372;2024-02-16T22:35:45;20.77;;;10.30;;
36371;SDS011;22398;51.346;12.372;2024-02-16T22:40:49;21.48;;;9.88;;
36371;SDS011;22398;51.346;12.372;2024-02-16T22:45:54;26.38;;;9.30;;
36371;SDS011;22398;51.346;12.372;2024-02-16T22:50:58;21.93;;;10.47;;
36371;SDS011;22398;51.346;12.372;2024-02-16T22:56:01;27.00;;;10.63;;
36371;SDS011;22398;51.346;12.372;2024-02-16T23:01:06;23.42;;;10.48;;
36371;SDS011;22398;51.346;12.372;2024-02-16T23:06:12;18.88;;;9.23;;
36371;SDS011;22398;51.346;12.372;2024-02-16T23:11:17;22.25;;;9.88;;
36371;SDS011;22398;51.346;12.372;2024-02-16T23:16:22;18.35;;;8.95;;
36371;SDS011;22398;51.346;12.372;2024-02-16T23:21:27;22.70;;;8.80;;
36371;SDS011;22398;51.346;12.372;2024-02-16T23:26:30;18.02;;;9.35;;
36371;SDS011;22398;51.346;12.372;2024-02-16T23:31:35;19.63;;;9.38;;
36371;SDS011;22398;51.346;12.372;2024-02-16T23:36:39;21.35;;;11.25;;
36371;SDS011;22398;51.346;12.372;2024-02-16T23:41:43;19.45;;;10.63;;
36371;SDS011;22398;51.346;12.372;2024-02-16T23:46:47;20.88;;;10.35;;
36371;SDS011;22398;51.346;12.372;2024-02-16T23:51:51;23.03;;;10.60;;
36371;SDS011;22398;51.346;12.372;2024-02-16T23:56:54;26.38;;;11.00;;
